createdAt,value
2023-02-27T00:00:59.789Z,5.50
2023-02-27T00:03:29.305Z,5.47
2023-02-27T00:05:56.749Z,5.30
2023-02-27T00:08:24.801Z,5.17
2023-02-27T00:10:51.542Z,4.17
2023-02-27T00:13:18.528Z,5.53
2023-02-27T00:15:47.265Z,5.27
2023-02-27T00:18:14.573Z,6.27
2023-02-27T00:20:41.442Z,6.20
2023-02-27T00:23:10.544Z,11.40
2023-02-27T00:25:37.397Z,10.30
2023-02-27T00:28:04.989Z,11.87
2023-02-27T00:30:32.175Z,12.30
2023-02-27T00:32:59.911Z,12.30
2023-02-27T00:35:26.690Z,12.07
2023-02-27T00:37:53.960Z,11.90
2023-02-27T00:40:21.174Z,10.70
2023-02-27T00:42:49.384Z,14.83
2023-02-27T00:45:16.189Z,12.43
2023-02-27T00:47:43.340Z,13.63
2023-02-27T00:50:10.686Z,8.53
2023-02-27T00:52:37.847Z,8.33
2023-02-27T00:55:05.545Z,8.17
2023-02-27T00:57:33.182Z,7.43
2023-02-27T01:00:00.213Z,7.43
2023-02-27T01:02:27.564Z,6.40
2023-02-27T01:04:55.859Z,6.03
2023-02-27T01:07:24.425Z,6.57
2023-02-27T01:09:51.164Z,5.53
2023-02-27T01:12:18.272Z,5.10
2023-02-27T01:14:45.073Z,4.47
2023-02-27T01:17:12.326Z,4.67
2023-02-27T01:19:39.311Z,4.97
2023-02-27T01:22:06.643Z,5.13
2023-02-27T01:24:33.646Z,4.50
2023-02-27T01:27:00.737Z,4.23
2023-02-27T01:29:27.504Z,4.33
2023-02-27T01:31:54.850Z,6.17
2023-02-27T01:34:21.633Z,4.83
2023-02-27T01:36:48.721Z,5.53
2023-02-27T01:39:16.511Z,5.20
2023-02-27T01:41:43.719Z,5.67
2023-02-27T01:44:12.779Z,5.70
2023-02-27T01:46:40.858Z,5.90
2023-02-27T01:49:29.440Z,6.07
2023-02-27T01:52:08.565Z,5.80
2023-02-27T01:54:40.420Z,5.30
2023-02-27T01:57:09.686Z,5.40
2023-02-27T01:59:41.067Z,4.73
2023-02-27T02:02:16.585Z,4.80
2023-02-27T02:04:44.096Z,5.17
2023-02-27T02:07:15.321Z,4.97
2023-02-27T02:09:46.667Z,5.50
2023-02-27T02:12:16.252Z,5.47
2023-02-27T02:14:43.852Z,7.07
2023-02-27T02:17:18.432Z,5.90
2023-02-27T02:20:26.851Z,5.40
2023-02-27T02:23:35.933Z,4.90
2023-02-27T02:26:33.594Z,5.10
2023-02-27T02:29:17.049Z,5.40
2023-02-27T02:32:04.807Z,5.53
2023-02-27T02:34:54.187Z,5.63
2023-02-27T02:37:52.283Z,5.23
2023-02-27T02:40:35.167Z,4.70
2023-02-27T02:43:36.553Z,5.30
2023-02-27T02:46:14.387Z,4.13
2023-02-27T02:48:52.974Z,4.10
2023-02-27T02:51:35.862Z,3.17
2023-02-27T02:54:11.958Z,3.40
2023-02-27T02:56:46.978Z,3.60
2023-02-27T02:59:20.658Z,3.83
2023-02-27T03:01:58.302Z,3.00
2023-02-27T03:04:40.760Z,3.47
2023-02-27T03:07:22.465Z,3.53
2023-02-27T03:09:55.422Z,3.93
2023-02-27T03:12:24.422Z,5.10
2023-02-27T03:15:19.283Z,4.53
2023-02-27T03:18:04.879Z,4.83
2023-02-27T03:20:36.673Z,4.50
2023-02-27T03:23:10.411Z,4.40
2023-02-27T03:25:39.032Z,4.40
2023-02-27T03:28:11.245Z,4.10
2023-02-27T03:30:43.709Z,4.80
2023-02-27T03:33:18.827Z,4.13
2023-02-27T03:35:56.835Z,3.93
2023-02-27T03:38:36.244Z,3.90
2023-02-27T03:41:10.341Z,4.47
2023-02-27T03:44:16.157Z,3.87
2023-02-27T03:46:43.017Z,4.87
2023-02-27T03:49:10.286Z,5.10
2023-02-27T03:51:37.160Z,7.23
2023-02-27T03:54:15.605Z,5.27
2023-02-27T03:56:55.920Z,5.83
2023-02-27T03:59:26.981Z,5.20
2023-02-27T04:01:56.712Z,6.43
2023-02-27T04:04:25.123Z,7.87
2023-02-27T04:07:45.262Z,8.87
2023-02-27T04:10:23.641Z,9.47
2023-02-27T04:13:33.321Z,9.73
2023-02-27T04:16:25.301Z,12.20
2023-02-27T04:19:11.120Z,9.33
2023-02-27T04:21:50.370Z,9.70
2023-02-27T04:24:26.006Z,10.23
2023-02-27T04:27:09.002Z,11.47
2023-02-27T04:30:02.186Z,12.57
2023-02-27T04:32:41.423Z,12.17
2023-02-27T04:35:23.494Z,11.03
2023-02-27T04:37:59.055Z,11.40
2023-02-27T04:40:36.646Z,11.87
2023-02-27T04:43:05.958Z,10.00
2023-02-27T04:45:38.342Z,8.90
2023-02-27T04:48:14.173Z,8.53
2023-02-27T04:50:47.076Z,8.47
2023-02-27T04:53:21.885Z,9.37
2023-02-27T04:55:55.818Z,9.90
2023-02-27T04:58:36.444Z,11.37
2023-02-27T05:01:11.930Z,12.23
2023-02-27T05:03:47.305Z,11.67
2023-02-27T05:06:17.412Z,12.47
2023-02-27T05:09:08.573Z,15.00
2023-02-27T05:12:01.640Z,12.53
2023-02-27T05:14:34.801Z,9.27
2023-02-27T05:17:10.298Z,7.73
2023-02-27T05:19:40.675Z,7.27
2023-02-27T05:22:16.609Z,7.70
2023-02-27T05:25:06.297Z,6.00
2023-02-27T05:28:17.610Z,6.83
2023-02-27T05:31:01.264Z,6.50
2023-02-27T05:33:36.542Z,5.80
2023-02-27T05:36:16.881Z,7.73
2023-02-27T05:38:50.021Z,7.17
2023-02-27T05:41:28.643Z,6.60
2023-02-27T05:44:10.349Z,7.13
2023-02-27T05:46:42.877Z,7.13
2023-02-27T05:49:23.243Z,9.30
2023-02-27T05:51:53.490Z,9.83
2023-02-27T05:54:46.007Z,9.70
2023-02-27T05:57:24.173Z,9.60
2023-02-27T06:00:00.530Z,14.50
2023-02-27T06:02:27.805Z,12.80
2023-02-27T06:04:54.973Z,14.13
2023-02-27T06:07:23.479Z,14.13
2023-02-27T06:09:50.925Z,18.00
2023-02-27T06:12:17.951Z,19.97
2023-02-27T06:14:44.885Z,18.03
2023-02-27T06:17:12.089Z,22.77
2023-02-27T06:19:38.897Z,24.03
2023-02-27T06:22:05.918Z,22.70
2023-02-27T06:24:32.696Z,14.27
2023-02-27T06:26:59.823Z,8.80
2023-02-27T06:29:26.615Z,9.07
2023-02-27T06:31:54.002Z,7.83
2023-02-27T06:34:21.014Z,7.43
2023-02-27T06:36:48.688Z,9.30
2023-02-27T06:39:15.529Z,11.60
2023-02-27T06:41:42.532Z,10.67
2023-02-27T06:44:09.523Z,11.03
2023-02-27T06:46:36.568Z,11.20
2023-02-27T06:49:03.469Z,14.40
2023-02-27T06:51:30.616Z,15.67
2023-02-27T06:53:57.466Z,15.67
2023-02-27T06:56:24.541Z,16.53
2023-02-27T06:58:51.371Z,16.37
2023-02-27T07:01:18.584Z,18.70
2023-02-27T07:03:48.856Z,18.63
2023-02-27T07:06:18.006Z,17.47
2023-02-27T07:09:01.892Z,32.20
2023-02-27T07:11:32.657Z,18.40
2023-02-27T07:13:59.697Z,9.00
2023-02-27T07:16:27.100Z,12.53
2023-02-27T07:18:54.153Z,19.33
2023-02-27T07:21:21.110Z,17.63
2023-02-27T07:23:47.856Z,17.77
2023-02-27T07:26:14.906Z,18.00
2023-02-27T07:28:41.878Z,16.87
2023-02-27T07:31:08.989Z,15.53
2023-02-27T07:33:35.850Z,14.67
2023-02-27T07:36:02.905Z,12.67
2023-02-27T07:38:29.711Z,11.27
2023-02-27T07:40:58.638Z,12.17
2023-02-27T07:43:26.142Z,11.87
2023-02-27T07:45:53.291Z,11.30
2023-02-27T07:48:20.035Z,13.17
2023-02-27T07:50:47.116Z,12.30
2023-02-27T07:53:13.911Z,12.30
2023-02-27T07:55:41.146Z,13.43
2023-02-27T07:58:07.938Z,14.03
2023-02-27T08:00:35.039Z,13.10
2023-02-27T08:03:02.004Z,13.50
2023-02-27T08:05:29.329Z,12.87
2023-02-27T08:07:56.171Z,13.23
2023-02-27T08:10:23.297Z,12.97
2023-02-27T08:12:50.053Z,14.53
2023-02-27T08:15:17.576Z,13.00
2023-02-27T08:17:46.010Z,8.90
2023-02-27T08:20:14.906Z,10.50
2023-02-27T08:22:42.645Z,9.40
2023-02-27T08:25:11.881Z,8.60
2023-02-27T08:27:39.621Z,15.37
2023-02-27T08:30:10.072Z,15.40
2023-02-27T08:32:38.626Z,12.43
2023-02-27T08:35:06.319Z,11.67
2023-02-27T08:37:33.063Z,13.20
2023-02-27T08:40:00.125Z,14.77
2023-02-27T08:42:27.104Z,14.63
2023-02-27T08:44:54.187Z,15.17
2023-02-27T08:47:21.046Z,13.60
2023-02-27T08:49:48.040Z,13.20
2023-02-27T08:52:14.795Z,12.03
2023-02-27T08:54:41.847Z,10.77
2023-02-27T08:57:08.660Z,9.40
2023-02-27T08:59:35.761Z,8.73
2023-02-27T09:02:02.505Z,8.27
2023-02-27T09:04:29.628Z,7.67
2023-02-27T09:06:57.420Z,8.13
2023-02-27T09:09:24.509Z,8.63
2023-02-27T09:11:51.689Z,6.43
2023-02-27T09:14:19.188Z,6.87
2023-02-27T09:16:46.329Z,5.93
2023-02-27T09:19:14.484Z,5.50
2023-02-27T09:21:42.577Z,5.73
2023-02-27T09:24:19.053Z,6.07
2023-02-27T09:26:48.679Z,6.40
2023-02-27T09:29:15.864Z,6.63
2023-02-27T09:31:42.671Z,7.53
2023-02-27T09:34:09.759Z,5.43
2023-02-27T09:36:36.496Z,5.17
2023-02-27T09:39:03.722Z,5.40
2023-02-27T09:41:33.207Z,4.60
2023-02-27T09:44:01.641Z,5.03
2023-02-27T09:46:29.625Z,4.80
2023-02-27T09:49:00.035Z,5.63
2023-02-27T09:51:28.829Z,4.97
2023-02-27T09:54:00.022Z,3.70
2023-02-27T09:56:32.417Z,4.57
2023-02-27T09:59:29.143Z,4.27
2023-02-27T10:02:01.270Z,4.00
2023-02-27T10:04:43.572Z,4.13
2023-02-27T10:07:23.082Z,3.63
2023-02-27T10:09:59.359Z,3.63
2023-02-27T10:12:43.914Z,2.70
2023-02-27T10:15:39.217Z,3.20
2023-02-27T10:18:25.412Z,2.87
2023-02-27T10:20:57.014Z,2.87
2023-02-27T10:23:34.032Z,2.80
2023-02-27T10:26:02.332Z,3.23
2023-02-27T10:28:29.712Z,3.13
2023-02-27T10:30:59.800Z,3.17
2023-02-27T10:33:41.805Z,3.20
2023-02-27T10:36:18.044Z,2.70
2023-02-27T10:39:05.698Z,2.50
2023-02-27T10:41:33.123Z,2.70
2023-02-27T10:44:00.629Z,2.10
2023-02-27T10:46:30.418Z,1.80
2023-02-27T10:49:01.794Z,1.90
2023-02-27T10:51:32.650Z,2.00
2023-02-27T10:54:19.515Z,2.00
2023-02-27T10:56:50.966Z,1.90
2023-02-27T10:59:38.183Z,2.30
2023-02-27T11:02:17.479Z,2.00
2023-02-27T11:04:53.950Z,2.40
2023-02-27T11:07:36.147Z,2.77
2023-02-27T11:10:21.462Z,2.40
2023-02-27T11:13:03.558Z,2.33
2023-02-27T11:15:38.832Z,2.40
2023-02-27T11:18:29.393Z,3.40
2023-02-27T11:21:12.670Z,1.60
2023-02-27T11:24:03.245Z,1.13
2023-02-27T11:26:35.454Z,1.57
2023-02-27T11:29:20.206Z,2.37
2023-02-27T11:32:04.738Z,0.97
2023-02-27T11:34:38.446Z,1.30
2023-02-27T11:37:18.599Z,1.40
2023-02-27T11:39:52.144Z,1.30
2023-02-27T11:42:26.899Z,1.83
2023-02-27T11:44:57.931Z,2.17
2023-02-27T11:47:30.116Z,1.47
2023-02-27T11:50:38.821Z,1.30
2023-02-27T11:53:05.530Z,1.60
2023-02-27T11:55:33.014Z,1.50
2023-02-27T11:58:13.144Z,1.23
2023-02-27T12:00:47.520Z,1.50
2023-02-27T12:03:50.134Z,5.67
2023-02-27T12:06:22.109Z,4.00
2023-02-27T12:08:59.855Z,3.77
2023-02-27T12:11:32.976Z,3.07
2023-02-27T12:14:11.705Z,2.97
2023-02-27T12:16:46.610Z,4.33
2023-02-27T12:19:22.482Z,3.40
2023-02-27T12:21:58.094Z,2.17
2023-02-27T12:24:30.993Z,2.17
2023-02-27T12:27:18.305Z,1.97
2023-02-27T12:30:00.403Z,2.13
2023-02-27T12:33:03.390Z,2.03
2023-02-27T12:35:33.160Z,5.80
2023-02-27T12:38:01.580Z,3.57
2023-02-27T12:40:37.706Z,3.07
2023-02-27T12:43:13.686Z,2.83
2023-02-27T12:46:05.111Z,4.03
2023-02-27T12:48:50.654Z,3.30
2023-02-27T12:51:44.259Z,4.50
2023-02-27T12:54:39.728Z,2.97
2023-02-27T12:57:25.595Z,3.87
2023-02-27T13:00:09.363Z,3.83
2023-02-27T13:03:09.768Z,3.50
2023-02-27T13:05:55.590Z,2.43
2023-02-27T13:08:34.081Z,1.70
2023-02-27T13:11:14.464Z,1.40
2023-02-27T13:13:50.409Z,1.27
2023-02-27T13:16:22.749Z,3.43
2023-02-27T13:19:05.045Z,3.50
2023-02-27T13:21:43.822Z,2.87
2023-02-27T13:24:28.491Z,2.20
2023-02-27T13:27:02.402Z,1.87
2023-02-27T13:29:41.559Z,2.00
2023-02-27T13:32:43.666Z,2.17
2023-02-27T13:35:28.516Z,2.30
2023-02-27T13:38:01.540Z,1.83
2023-02-27T13:40:38.663Z,1.53
2023-02-27T13:43:28.664Z,1.23
2023-02-27T13:46:01.176Z,2.20
2023-02-27T13:48:34.204Z,2.90
2023-02-27T13:51:01.915Z,1.60
2023-02-27T13:53:29.832Z,1.30
2023-02-27T13:56:17.588Z,1.20
2023-02-27T13:58:45.116Z,1.60
2023-02-27T14:01:18.792Z,1.40
2023-02-27T14:03:54.589Z,2.73
2023-02-27T14:06:23.231Z,1.70
2023-02-27T14:08:53.119Z,1.40
2023-02-27T14:11:29.714Z,1.03
2023-02-27T14:13:58.857Z,2.00
2023-02-27T14:16:37.773Z,1.60
2023-02-27T14:19:19.849Z,1.33
2023-02-27T14:21:57.483Z,1.90
2023-02-27T14:24:49.759Z,1.93
2023-02-27T14:27:25.269Z,1.50
2023-02-27T14:29:57.391Z,1.33
2023-02-27T14:32:26.552Z,2.17
2023-02-27T14:34:54.737Z,1.90
2023-02-27T14:37:25.831Z,1.50
2023-02-27T14:39:55.752Z,1.83
2023-02-27T14:42:40.275Z,1.77
2023-02-27T14:45:18.988Z,1.67
2023-02-27T14:47:47.109Z,2.20
2023-02-27T14:50:24.325Z,2.13
2023-02-27T14:52:51.122Z,1.93
2023-02-27T14:55:30.358Z,2.10
2023-02-27T14:57:59.226Z,2.07
2023-02-27T15:00:33.075Z,2.93
2023-02-27T15:03:00.886Z,2.50
2023-02-27T15:05:34.731Z,2.57
2023-02-27T15:08:01.910Z,2.43
2023-02-27T15:10:33.547Z,1.80
2023-02-27T15:13:01.879Z,2.40
2023-02-27T15:15:29.888Z,2.03
2023-02-27T15:17:56.652Z,1.40
2023-02-27T15:20:30.171Z,1.83
2023-02-27T15:22:58.976Z,1.90
2023-02-27T15:25:38.410Z,2.80
2023-02-27T15:28:08.216Z,1.83
2023-02-27T15:30:35.263Z,2.30
2023-02-27T15:33:03.018Z,1.90
2023-02-27T15:35:36.617Z,1.77
2023-02-27T15:38:04.367Z,2.30
2023-02-27T15:40:34.161Z,1.90
2023-02-27T15:43:01.599Z,2.17
2023-02-27T15:45:34.842Z,2.10
2023-02-27T15:48:02.892Z,1.90
2023-02-27T15:50:42.455Z,2.77
2023-02-27T15:53:13.316Z,3.13
2023-02-27T15:55:42.948Z,2.80
2023-02-27T15:58:24.939Z,2.47
2023-02-27T16:01:13.523Z,2.70
2023-02-27T16:03:45.563Z,2.30
2023-02-27T16:06:19.290Z,2.50
2023-02-27T16:08:51.813Z,3.60
2023-02-27T16:11:28.593Z,2.40
2023-02-27T16:13:57.685Z,3.57
2023-02-27T16:16:24.702Z,3.10
2023-02-27T16:18:57.740Z,2.60
2023-02-27T16:21:31.216Z,2.87
2023-02-27T16:24:19.903Z,2.70
2023-02-27T16:26:52.721Z,2.50
2023-02-27T16:29:23.017Z,2.83
2023-02-27T16:31:57.478Z,2.97
2023-02-27T16:34:42.794Z,3.57
2023-02-27T16:37:23.452Z,2.60
2023-02-27T16:39:52.157Z,2.07
2023-02-27T16:42:19.397Z,2.77
2023-02-27T16:44:46.273Z,2.87
2023-02-27T16:47:13.377Z,3.03
2023-02-27T16:49:40.536Z,3.97
2023-02-27T16:52:11.030Z,4.67
2023-02-27T16:54:37.904Z,5.10
2023-02-27T16:57:05.107Z,5.87
2023-02-27T16:59:37.227Z,5.97
2023-02-27T17:02:07.683Z,6.87
2023-02-27T17:04:36.162Z,7.60
2023-02-27T17:07:06.337Z,6.40
2023-02-27T17:09:33.609Z,6.70
2023-02-27T17:12:00.569Z,6.30
2023-02-27T17:14:27.308Z,6.27
2023-02-27T17:16:54.407Z,7.43
2023-02-27T17:19:22.217Z,7.20
2023-02-27T17:21:50.577Z,7.73
2023-02-27T17:24:17.365Z,8.00
2023-02-27T17:26:44.430Z,8.63
2023-02-27T17:29:12.117Z,9.40
2023-02-27T17:31:39.279Z,10.17
2023-02-27T17:34:08.696Z,10.77
2023-02-27T17:36:36.264Z,9.37
2023-02-27T17:39:04.305Z,9.30
2023-02-27T17:41:32.781Z,9.47
2023-02-27T17:44:01.888Z,8.17
2023-02-27T17:46:30.854Z,9.70
2023-02-27T17:49:00.850Z,10.20
2023-02-27T17:51:30.001Z,11.07
2023-02-27T17:53:57.747Z,10.67
2023-02-27T17:56:24.739Z,9.90
2023-02-27T17:58:51.555Z,7.97
2023-02-27T18:01:25.665Z,10.57
2023-02-27T18:03:54.300Z,10.53
2023-02-27T18:06:22.275Z,9.63
2023-02-27T18:08:49.674Z,9.77
2023-02-27T18:11:19.860Z,10.17
2023-02-27T18:13:47.481Z,9.07
2023-02-27T18:16:15.401Z,8.33
2023-02-27T18:18:43.095Z,9.90
2023-02-27T18:21:16.785Z,10.17
2023-02-27T18:23:44.019Z,12.03
2023-02-27T18:26:28.468Z,15.90
2023-02-27T18:29:00.094Z,10.93
2023-02-27T18:31:33.805Z,11.40
2023-02-27T18:34:01.433Z,10.03
2023-02-27T18:36:29.937Z,8.83
2023-02-27T18:38:57.482Z,9.47
2023-02-27T18:41:24.570Z,9.83
2023-02-27T18:43:51.453Z,9.47
2023-02-27T18:46:18.694Z,10.73
2023-02-27T18:48:46.475Z,9.57
2023-02-27T18:51:15.468Z,9.87
2023-02-27T18:53:44.895Z,9.73
2023-02-27T18:56:13.130Z,8.77
2023-02-27T18:58:40.201Z,8.80
2023-02-27T19:01:07.980Z,9.40
2023-02-27T19:03:36.114Z,8.60
2023-02-27T19:06:03.570Z,8.47
2023-02-27T19:08:30.511Z,8.90
2023-02-27T19:10:58.591Z,7.13
2023-02-27T19:13:26.331Z,6.80
2023-02-27T19:15:53.905Z,7.87
2023-02-27T19:18:20.720Z,7.77
2023-02-27T19:20:48.093Z,8.83
2023-02-27T19:23:14.939Z,8.60
2023-02-27T19:25:42.534Z,7.60
2023-02-27T19:28:11.085Z,8.53
2023-02-27T19:30:39.280Z,8.40
2023-02-27T19:33:06.318Z,7.50
2023-02-27T19:35:33.500Z,9.03
2023-02-27T19:38:00.344Z,8.63
2023-02-27T19:40:28.594Z,7.97
2023-02-27T19:42:55.505Z,11.30
2023-02-27T19:45:23.406Z,8.93
2023-02-27T19:47:50.414Z,9.97
2023-02-27T19:50:17.760Z,11.57
2023-02-27T19:52:44.571Z,11.77
2023-02-27T19:55:11.969Z,8.70
2023-02-27T19:57:38.684Z,7.10
2023-02-27T20:00:07.619Z,8.93
2023-02-27T20:02:40.848Z,8.63
2023-02-27T20:05:09.157Z,8.30
2023-02-27T20:07:36.019Z,9.77
2023-02-27T20:10:03.580Z,10.83
2023-02-27T20:12:30.294Z,9.23
2023-02-27T20:14:57.386Z,8.87
2023-02-27T20:17:24.093Z,9.60
2023-02-27T20:19:51.196Z,13.37
2023-02-27T20:22:17.981Z,10.33
2023-02-27T20:24:45.052Z,11.20
2023-02-27T20:27:12.086Z,12.60
2023-02-27T20:29:40.424Z,26.07
2023-02-27T20:32:08.000Z,26.13
2023-02-27T20:34:35.101Z,20.37
2023-02-27T20:37:03.090Z,19.87
2023-02-27T20:39:30.342Z,16.27
2023-02-27T20:41:57.140Z,12.73
2023-02-27T20:44:24.238Z,13.10
2023-02-27T20:46:51.041Z,11.87
2023-02-27T20:49:18.349Z,13.87
2023-02-27T20:51:45.383Z,13.37
2023-02-27T20:54:16.494Z,14.10
2023-02-27T20:56:43.909Z,14.57
2023-02-27T20:59:16.059Z,12.10
2023-02-27T21:01:51.258Z,14.13
2023-02-27T21:04:42.300Z,14.53
2023-02-27T21:07:14.030Z,16.60
2023-02-27T21:09:41.213Z,16.67
2023-02-27T21:12:08.641Z,17.03
2023-02-27T21:14:36.413Z,17.90
2023-02-27T21:17:04.120Z,17.90
2023-02-27T21:19:31.418Z,19.03
2023-02-27T21:21:58.217Z,20.60
2023-02-27T21:24:25.749Z,22.07
2023-02-27T21:26:52.586Z,22.23
2023-02-27T21:29:21.699Z,22.00
2023-02-27T21:31:50.156Z,22.53
2023-02-27T21:34:20.987Z,25.33
2023-02-27T21:36:48.876Z,26.63
2023-02-27T21:39:19.596Z,24.97
2023-02-27T21:41:46.686Z,30.07
2023-02-27T21:44:16.784Z,26.43
2023-02-27T21:46:43.675Z,24.93
2023-02-27T21:49:17.112Z,26.60
2023-02-27T21:51:44.147Z,25.30
2023-02-27T21:54:12.873Z,24.97
2023-02-27T21:56:40.747Z,24.43
2023-02-27T21:59:08.064Z,23.57
2023-02-27T22:01:35.827Z,21.83
2023-02-27T22:04:03.040Z,20.83
2023-02-27T22:06:32.310Z,18.80
2023-02-27T22:09:01.795Z,19.13
2023-02-27T22:11:29.691Z,18.80
2023-02-27T22:13:57.164Z,18.50
2023-02-27T22:16:24.403Z,17.67
2023-02-27T22:18:51.818Z,17.00
2023-02-27T22:21:24.140Z,17.40
2023-02-27T22:23:52.015Z,15.40
2023-02-27T22:26:25.619Z,16.33
2023-02-27T22:28:52.908Z,13.93
2023-02-27T22:31:25.668Z,15.13
2023-02-27T22:33:54.762Z,13.83
2023-02-27T22:36:24.050Z,14.00
2023-02-27T22:38:51.890Z,14.50
2023-02-27T22:41:33.514Z,13.53
2023-02-27T22:44:01.975Z,14.00
2023-02-27T22:46:28.801Z,14.33
2023-02-27T22:48:57.185Z,13.80
2023-02-27T22:51:25.400Z,14.30
2023-02-27T22:53:55.458Z,16.63
2023-02-27T22:56:22.952Z,15.13
2023-02-27T22:58:50.383Z,15.40
2023-02-27T23:01:22.856Z,15.03
2023-02-27T23:03:52.216Z,13.30
2023-02-27T23:06:24.983Z,13.93
2023-02-27T23:08:52.579Z,15.20
2023-02-27T23:11:20.164Z,15.17
2023-02-27T23:13:47.868Z,13.40
2023-02-27T23:16:14.793Z,15.47
2023-02-27T23:18:47.972Z,14.70
2023-02-27T23:21:16.552Z,14.60
2023-02-27T23:23:44.014Z,15.23
2023-02-27T23:26:11.495Z,14.30
2023-02-27T23:28:38.729Z,14.17
2023-02-27T23:31:06.871Z,14.70
2023-02-27T23:33:34.389Z,14.83
2023-02-27T23:36:01.625Z,13.77
2023-02-27T23:38:29.236Z,16.03
2023-02-27T23:40:56.018Z,14.47
2023-02-27T23:43:42.629Z,14.67
2023-02-27T23:46:12.334Z,13.33
2023-02-27T23:48:39.792Z,14.93
2023-02-27T23:51:08.142Z,15.67
2023-02-27T23:53:36.718Z,15.20
2023-02-27T23:56:15.990Z,16.97
2023-02-27T23:58:43.853Z,15.60
